Shell Fueler — WZW7217 — position and weather

sailwx.info

Track history (hours):
 
Tides and Currents Weather Stations Pressure Air Temp Water Temp Dewpoint Dewpoint Depression Visibility Wind Speed Wind Dir Waves Ship Positions

Shell Fueler

Owner: JOHN W STONE OIL DIST .LLC, GRETNA, LA. More information available from US FCC via Universal Licensing System and Coast Guard Vessel Documentation Center.

Last reported at 2016-Jul-18 23:33 UTC. Time now 2016-Jul-25 17:50 UTC.
Position N 29°56' W 090°04'.

Length 21 m; draft 2.5 m.

Type: Towing. MMSI: 366954210.

Date/timePositionNaut miles runAvg speedWind from/ knotsBaromVisibWave heightAir tempDewpointWater temp
2016-Jul-18 23:33N 29°56' W 090°04'  
2016-Jul-16 08:33N 29°56' W 090°04'0 0.0
2016-Jul-16 07:33N 29°56' W 090°04'0 0.0
2016-Jul-16 06:33N 29°56' W 090°04'0 0.0
2016-Jul-16 04:33N 29°56' W 090°04'2 1.6
2016-Jul-16 03:33N 29°55' W 090°05'0 0.0
2016-Jul-16 02:33N 29°55' W 090°05'0 0.0
2016-Jul-16 01:33N 29°55' W 090°05'2 1.9
2016-Jul-16 00:33N 29°56' W 090°03'0 0.0
2016-Jul-15 23:33N 29°56' W 090°03'0 0.0
2016-Jul-15 22:33N 29°56' W 090°03'0 0.0
2016-Jul-15 21:33N 29°56' W 090°03'0 0.0
2016-Jul-15 20:33N 29°56' W 090°03'0 0.0
2016-Jul-15 19:33N 29°56' W 090°03'0 0.0
2016-Jul-15 18:34N 29°56' W 090°03'0 0.0
2016-Jul-15 17:34N 29°56' W 090°03'0 0.0
2016-Jul-15 16:33N 29°56' W 090°03'0 0.0
2016-Jul-15 15:34N 29°56' W 090°03'0 0.0
2016-Jul-15 14:34N 29°56' W 090°03'0 0.0
2016-Jul-15 13:34N 29°56' W 090°03'0 0.0
2016-Jul-15 12:33N 29°56' W 090°03'0 0.1
2016-Jul-15 11:33N 29°56' W 090°03'0 0.0
2016-Jul-15 10:33N 29°56' W 090°03'0 0.0
2016-Jul-15 09:34N 29°56' W 090°03'0 0.0
2016-Jul-15 08:33N 29°56' W 090°03'3 2.9
2016-Jul-15 07:33N 29°56' W 090°00'0 0.0
2016-Jul-15 06:33N 29°56' W 090°00'0 0.0
2016-Jul-15 05:34N 29°56' W 090°00'0 0.0
2016-Jul-15 04:34N 29°56' W 090°00'0 0.0
2016-Jul-15 03:33N 29°56' W 090°00'0 0.0
2016-Jul-15 02:33N 29°56' W 090°00'0 0.0
2016-Jul-15 01:34N 29°56' W 090°00'3 3.1
2016-Jul-15 00:34N 29°56' W 090°04'0 0.1
2016-Jul-14 23:33N 29°56' W 090°04'0 0.4
2016-Jul-14 22:34N 29°56' W 090°03'0 0.2
2016-Jul-14 21:34N 29°56' W 090°04'0 0.1
2016-Jul-14 20:33N 29°56' W 090°04'0 0.0
2016-Jul-14 19:33N 29°56' W 090°04'0 0.3
2016-Jul-14 18:34N 29°55' W 090°04'0 0.1
2016-Jul-14 17:33N 29°55' W 090°04'0 0.0
2016-Jul-14 16:33N 29°55' W 090°04'0 0.0
2016-Jul-14 15:33N 29°55' W 090°04'0 0.0
2016-Jul-14 14:34N 29°55' W 090°04'3 2.8
2016-Jul-14 13:33N 29°57' W 090°01'6 5.5
2016-Jul-14 12:28N 29°54' W 089°55'3 3.6
2016-Jul-14 11:34N 29°53' W 089°58'  
2016-Jul-11 22:13N 29°46' W 090°01'3 3.6
2016-Jul-11 21:30N 29°48' W 090°01'0 0.0
2016-Jul-11 20:33N 29°48' W 090°01'0 0.0
2016-Jul-11 19:33N 29°48' W 090°01'6 5.5
2016-Jul-11 18:33N 29°53' W 089°57'4 3.9
2016-Jul-11 17:34N 29°56' W 089°59'4 4.0
2016-Jul-11 16:33N 29°55' W 090°04'0 0.0
2016-Jul-11 15:34N 29°55' W 090°04'0 0.0
2016-Jul-11 14:34N 29°55' W 090°04'0 0.0
2016-Jul-11 13:33N 29°55' W 090°04'0 0.0
2016-Jul-11 12:32N 29°55' W 090°04'0 0.0
2016-Jul-11 11:33N 29°55' W 090°04'0 0.0
2016-Jul-11 10:33N 29°55' W 090°04'0 0.0
2016-Jul-11 09:33N 29°55' W 090°04'0 0.0
2016-Jul-11 08:34N 29°55' W 090°04'0 0.0
2016-Jul-11 07:34N 29°55' W 090°04'0 0.0
2016-Jul-11 06:33N 29°55' W 090°04'0 0.0
2016-Jul-11 04:33N 29°55' W 090°04'0 0.0
2016-Jul-11 03:33N 29°55' W 090°04'0 0.0
2016-Jul-11 02:34N 29°55' W 090°04'0 0.0
2016-Jul-11 01:33N 29°55' W 090°04'0 0.0
2016-Jul-11 00:34N 29°55' W 090°04'0 0.1
2016-Jul-10 23:34N 29°55' W 090°04'0 0.0
2016-Jul-10 22:33N 29°55' W 090°04'0 0.0
2016-Jul-10 21:33N 29°55' W 090°04'0 0.0
2016-Jul-10 20:34N 29°55' W 090°04'0 0.0
2016-Jul-10 19:34N 29°55' W 090°04'0 0.0
2016-Jul-10 18:34N 29°55' W 090°04'0 0.0
2016-Jul-10 17:34N 29°55' W 090°04'  
Track history (hours):
 
Tides and Currents Weather Stations Pressure Air Temp Water Temp Dewpoint Dewpoint Depression Visibility Wind Speed Wind Dir Waves Ship Positions

Shell Fueler

Owner: JOHN W STONE OIL DIST .LLC, GRETNA, LA. More information available from US FCC via Universal Licensing System and Coast Guard Vessel Documentation Center.

Last reported at 2016-Jul-18 23:33 UTC. Time now 2016-Jul-25 17:50 UTC.
Position N 29°56' W 090°04'.

Length 21 m; draft 2.5 m.

Type: Towing. MMSI: 366954210.

Date/timePositionNaut miles runAvg speedWind from/ knotsBaromVisibWave heightAir tempDewpointWater temp
2016-Jul-18 23:33N 29°56' W 090°04'  
2016-Jul-16 08:33N 29°56' W 090°04'0 0.0
2016-Jul-16 07:33N 29°56' W 090°04'0 0.0
2016-Jul-16 06:33N 29°56' W 090°04'0 0.0
2016-Jul-16 04:33N 29°56' W 090°04'2 1.6
2016-Jul-16 03:33N 29°55' W 090°05'0 0.0
2016-Jul-16 02:33N 29°55' W 090°05'0 0.0
2016-Jul-16 01:33N 29°55' W 090°05'2 1.9
2016-Jul-16 00:33N 29°56' W 090°03'0 0.0
2016-Jul-15 23:33N 29°56' W 090°03'0 0.0
2016-Jul-15 22:33N 29°56' W 090°03'0 0.0
2016-Jul-15 21:33N 29°56' W 090°03'0 0.0
2016-Jul-15 20:33N 29°56' W 090°03'0 0.0
2016-Jul-15 19:33N 29°56' W 090°03'0 0.0
2016-Jul-15 18:34N 29°56' W 090°03'0 0.0
2016-Jul-15 17:34N 29°56' W 090°03'0 0.0
2016-Jul-15 16:33N 29°56' W 090°03'0 0.0
2016-Jul-15 15:34N 29°56' W 090°03'0 0.0
2016-Jul-15 14:34N 29°56' W 090°03'0 0.0
2016-Jul-15 13:34N 29°56' W 090°03'0 0.0
2016-Jul-15 12:33N 29°56' W 090°03'0 0.1
2016-Jul-15 11:33N 29°56' W 090°03'0 0.0
2016-Jul-15 10:33N 29°56' W 090°03'0 0.0
2016-Jul-15 09:34N 29°56' W 090°03'0 0.0
2016-Jul-15 08:33N 29°56' W 090°03'3 2.9
2016-Jul-15 07:33N 29°56' W 090°00'0 0.0
2016-Jul-15 06:33N 29°56' W 090°00'0 0.0
2016-Jul-15 05:34N 29°56' W 090°00'0 0.0
2016-Jul-15 04:34N 29°56' W 090°00'0 0.0
2016-Jul-15 03:33N 29°56' W 090°00'0 0.0
2016-Jul-15 02:33N 29°56' W 090°00'0 0.0
2016-Jul-15 01:34N 29°56' W 090°00'3 3.1
2016-Jul-15 00:34N 29°56' W 090°04'0 0.1
2016-Jul-14 23:33N 29°56' W 090°04'0 0.4
2016-Jul-14 22:34N 29°56' W 090°03'0 0.2
2016-Jul-14 21:34N 29°56' W 090°04'0 0.1
2016-Jul-14 20:33N 29°56' W 090°04'0 0.0
2016-Jul-14 19:33N 29°56' W 090°04'0 0.3
2016-Jul-14 18:34N 29°55' W 090°04'0 0.1
2016-Jul-14 17:33N 29°55' W 090°04'0 0.0
2016-Jul-14 16:33N 29°55' W 090°04'0 0.0
2016-Jul-14 15:33N 29°55' W 090°04'0 0.0
2016-Jul-14 14:34N 29°55' W 090°04'3 2.8
2016-Jul-14 13:33N 29°57' W 090°01'6 5.5
2016-Jul-14 12:28N 29°54' W 089°55'3 3.6
2016-Jul-14 11:34N 29°53' W 089°58'  
2016-Jul-11 22:13N 29°46' W 090°01'3 3.6
2016-Jul-11 21:30N 29°48' W 090°01'0 0.0
2016-Jul-11 20:33N 29°48' W 090°01'0 0.0
2016-Jul-11 19:33N 29°48' W 090°01'6 5.5
2016-Jul-11 18:33N 29°53' W 089°57'4 3.9
2016-Jul-11 17:34N 29°56' W 089°59'4 4.0
2016-Jul-11 16:33N 29°55' W 090°04'0 0.0
2016-Jul-11 15:34N 29°55' W 090°04'0 0.0
2016-Jul-11 14:34N 29°55' W 090°04'0 0.0
2016-Jul-11 13:33N 29°55' W 090°04'0 0.0
2016-Jul-11 12:32N 29°55' W 090°04'0 0.0
2016-Jul-11 11:33N 29°55' W 090°04'0 0.0
2016-Jul-11 10:33N 29°55' W 090°04'0 0.0
2016-Jul-11 09:33N 29°55' W 090°04'0 0.0
2016-Jul-11 08:34N 29°55' W 090°04'0 0.0
2016-Jul-11 07:34N 29°55' W 090°04'0 0.0
2016-Jul-11 06:33N 29°55' W 090°04'0 0.0
2016-Jul-11 04:33N 29°55' W 090°04'0 0.0
2016-Jul-11 03:33N 29°55' W 090°04'0 0.0
2016-Jul-11 02:34N 29°55' W 090°04'0 0.0
2016-Jul-11 01:33N 29°55' W 090°04'0 0.0
2016-Jul-11 00:34N 29°55' W 090°04'0 0.1
2016-Jul-10 23:34N 29°55' W 090°04'0 0.0
2016-Jul-10 22:33N 29°55' W 090°04'0 0.0
2016-Jul-10 21:33N 29°55' W 090°04'0 0.0
2016-Jul-10 20:34N 29°55' W 090°04'0 0.0
2016-Jul-10 19:34N 29°55' W 090°04'0 0.0
2016-Jul-10 18:34N 29°55' W 090°04'0 0.0
2016-Jul-10 17:34N 29°55' W 090°04'  

Dump ship's entire track history